Time;durP1;ratioP1;P1;durP2;ratioP2;P2;SDS_P1;SDS_P2;PMS_P1;PMS_P2;Temp;Humidity;BMP_temperature;BMP_pressure;BME280_temperature;BME280_humidity;BME280_pressure;Samples;Min_cycle;Max_cycle;Signal;HPM_P1;HPM_P2
2022/09/29 00:00:41;;;;;;;3.10;1.80;;;7.10;99.90;;;;;;5072186;28;20067;-69
2022/09/29 00:03:07;;;;;;;2.25;1.52;;;7.10;99.90;;;;;;5072182;28;20080;-69
2022/09/29 00:05:33;;;;;;;3.03;2.05;;;7.10;99.90;;;;;;5071884;28;20052;-69
2022/09/29 00:07:59;;;;;;;2.28;1.65;;;7.10;99.90;;;;;;5053831;28;20052;-69
2022/09/29 00:10:24;;;;;;;5.95;1.85;;;7.10;99.90;;;;;;5053818;28;20491;-69
2022/09/29 00:12:50;;;;;;;4.20;2.30;;;7.10;99.90;;;;;;5072117;28;20067;-69
2022/09/29 00:15:16;;;;;;;3.15;2.08;;;7.20;99.90;;;;;;5053504;28;20085;-69
2022/09/29 00:17:42;;;;;;;2.25;1.67;;;7.20;99.90;;;;;;5053731;28;20048;-69
2022/09/29 00:20:08;;;;;;;2.78;1.95;;;7.10;99.90;;;;;;5053994;28;20523;-69
2022/09/29 00:22:34;;;;;;;2.80;1.95;;;7.10;99.90;;;;;;5071796;28;20051;-69
2022/09/29 00:24:59;;;;;;;2.25;1.70;;;7.10;99.90;;;;;;5071923;28;20032;-69
2022/09/29 00:27:25;;;;;;;2.80;1.70;;;7.10;99.90;;;;;;5071937;28;20044;-69
2022/09/29 00:29:51;;;;;;;2.78;1.80;;;7.10;99.90;;;;;;5053644;28;20475;-69
2022/09/29 00:32:17;;;;;;;2.33;1.60;;;7.20;99.90;;;;;;5071820;28;20419;-69
2022/09/29 00:34:43;;;;;;;3.55;2.20;;;7.10;99.90;;;;;;5053576;28;20380;-69
2022/09/29 00:37:09;;;;;;;2.92;2.03;;;7.20;99.90;;;;;;5071842;28;20215;-69
2022/09/29 00:39:35;;;;;;;2.20;1.85;;;7.50;99.90;;;;;;5053783;28;20033;-69
2022/09/29 00:42:00;;;;;;;2.83;1.92;;;7.40;99.90;;;;;;5072021;28;20037;-69
2022/09/29 00:44:54;;;;;;;2.33;1.92;;;7.10;99.90;;;;;;5075832;28;20503;-69
2022/09/29 00:47:21;;;;;;;2.85;1.90;;;7.10;99.90;;;;;;5075538;28;20072;-69
2022/09/29 00:49:59;;;;;;;3.40;2.03;;;7.20;99.90;;;;;;5076078;28;20029;-69
2022/09/29 00:52:32;;;;;;;2.55;2.00;;;7.10;99.90;;;;;;5057494;28;20048;-69
2022/09/29 00:55:06;;;;;;;3.45;2.08;;;7.10;99.90;;;;;;5075613;28;20121;-69
2022/09/29 00:57:40;;;;;;;3.85;2.33;;;7.10;99.90;;;;;;5075647;28;20488;-69
2022/09/29 01:00:08;;;;;;;3.22;2.20;;;7.10;99.90;;;;;;5075377;28;20483;-69
2022/09/29 01:02:41;;;;;;;3.97;2.47;;;7.10;99.90;;;;;;5057248;28;20036;-69
2022/09/29 01:05:11;;;;;;;4.97;2.33;;;7.10;99.90;;;;;;5057321;28;20045;-70
2022/09/29 01:07:38;;;;;;;3.25;2.33;;;7.10;99.90;;;;;;5075362;28;20044;-69
2022/09/29 01:10:05;;;;;;;3.80;2.13;;;7.00;99.90;;;;;;5057216;28;20044;-69
2022/09/29 01:12:31;;;;;;;4.03;2.28;;;7.00;99.90;;;;;;5057185;28;20127;-69
2022/09/29 01:14:57;;;;;;;5.15;2.50;;;7.10;99.90;;;;;;5074844;28;20128;-69
2022/09/29 01:17:23;;;;;;;4.95;2.53;;;7.00;99.90;;;;;;5057220;28;20044;-69
2022/09/29 01:20:29;;;;;;;4.78;2.53;;;6.90;99.90;;;;;;5075164;28;20051;-69
2022/09/29 01:23:18;;;;;;;5.22;2.97;;;6.90;99.90;;;;;;4973912;28;20046;-69
2022/09/29 01:26:16;;;;;;;4.38;2.58;;;7.00;99.90;;;;;;5070546;28;20091;-69
2022/09/29 01:29:06;;;;;;;4.75;2.63;;;7.00;99.90;;;;;;5019467;28;20063;-69
2022/09/29 01:32:12;;;;;;;3.75;2.78;;;7.00;99.90;;;;;;5075292;28;20125;-69
2022/09/29 01:34:58;;;;;;;3.95;2.53;;;7.00;99.90;;;;;;5074620;28;20117;-69
2022/09/29 01:37:27;;;;;;;3.72;2.47;;;7.10;99.90;;;;;;5075202;28;20520;-69
2022/09/29 01:40:05;;;;;;;4.50;2.83;;;7.00;99.90;;;;;;5074645;28;20044;-69
2022/09/29 01:42:58;;;;;;;3.10;2.45;;;7.00;99.90;;;;;;5074803;28;20133;-69
2022/09/29 01:45:33;;;;;;;3.53;2.55;;;7.40;99.90;;;;;;5073626;28;20105;-69
2022/09/29 01:48:31;;;;;;;4.20;2.83;;;7.30;99.90;;;;;;5074425;28;20041;-69
2022/09/29 01:51:03;;;;;;;5.75;3.22;;;6.90;99.90;;;;;;5069388;28;20052;-69
2022/09/29 01:53:39;;;;;;;4.47;3.08;;;7.10;99.90;;;;;;5074277;28;20126;-69
2022/09/29 01:56:13;;;;;;;3.97;2.83;;;6.90;99.90;;;;;;5074231;28;20079;-69
2022/09/29 01:58:47;;;;;;;4.38;2.78;;;7.20;99.90;;;;;;5074191;28;20047;-69
2022/09/29 02:01:15;;;;;;;4.50;3.30;;;6.90;99.90;;;;;;5074466;28;20047;-69
2022/09/29 02:03:46;;;;;;;4.82;2.75;;;6.90;99.90;;;;;;5074431;28;20052;-69
2022/09/29 02:06:23;;;;;;;5.70;3.30;;;6.80;99.90;;;;;;5073994;28;20045;-69
2022/09/29 02:09:01;;;;;;;5.05;3.20;;;6.80;99.90;;;;;;5056271;28;20044;-69
2022/09/29 02:11:28;;;;;;;6.25;3.05;;;6.90;99.90;;;;;;5056015;28;20049;-69
2022/09/29 02:14:09;;;;;;;4.30;2.83;;;6.80;99.90;;;;;;5073990;28;20044;-69
2022/09/29 02:16:40;;;;;;;6.65;3.50;;;6.80;99.90;;;;;;5055914;28;20055;-69
2022/09/29 02:19:05;;;;;;;;;;;6.80;99.90;;;;;;5056582;28;20466;-69
2022/09/29 02:21:31;;;;;;;5.47;3.03;;;6.70;99.90;;;;;;5073876;28;19968;-69
2022/09/29 02:23:57;;;;;;;4.57;2.88;;;6.70;99.90;;;;;;5056238;28;20072;-69
2022/09/29 02:26:27;;;;;;;6.65;3.08;;;6.60;99.90;;;;;;5039090;28;20106;-69
2022/09/29 02:28:54;;;;;;;5.78;3.38;;;6.60;99.90;;;;;;5074022;28;20040;-69
2022/09/29 02:31:21;;;;;;;5.10;3.35;;;6.60;99.90;;;;;;5073573;28;20098;-69
2022/09/29 02:33:47;;;;;;;4.68;3.10;;;6.60;99.90;;;;;;5055851;28;20516;-69
2022/09/29 02:36:39;;;;;;;4.93;3.13;;;6.60;99.90;;;;;;5073784;28;20123;-69
2022/09/29 02:39:28;;;;;;;5.97;3.00;;;6.50;99.90;;;;;;5055396;28;20041;-69
2022/09/29 02:42:00;;;;;;;6.43;3.22;;;6.50;99.90;;;;;;5073711;28;20040;-69
2022/09/29 02:44:53;;;;;;;5.05;2.90;;;7.50;99.90;;;;;;5055625;28;20106;-69
2022/09/29 02:48:05;;;;;;;5.72;2.92;;;6.50;99.90;;;;;;5073282;28;20048;-69
2022/09/29 02:50:49;;;;;;;;;;;6.50;99.90;;;;;;5073911;28;20044;-69
2022/09/29 02:53:51;;;;;;;4.28;3.15;;;6.40;99.90;;;;;;5055239;28;19919;-69
2022/09/29 02:56:26;;;;;;;5.55;3.28;;;6.40;99.90;;;;;;5073336;28;20072;-69
2022/09/29 02:59:14;;;;;;;5.63;3.05;;;6.50;99.90;;;;;;5055095;28;20044;-68
2022/09/29 03:01:51;;;;;;;5.43;2.92;;;6.40;99.90;;;;;;5055341;28;20048;-69
2022/09/29 03:04:18;;;;;;;5.80;3.42;;;6.40;99.90;;;;;;5054964;28;20048;-68
2022/09/29 03:06:44;;;;;;;5.05;3.55;;;6.60;99.90;;;;;;5054831;28;20051;-69
2022/09/29 03:09:10;;;;;;;7.30;3.38;;;6.50;99.90;;;;;;5072916;28;20400;-68
2022/09/29 03:11:36;;;;;;;3.88;2.95;;;6.40;99.90;;;;;;5072789;28;20076;-69
2022/09/29 03:14:02;;;;;;;4.82;3.50;;;6.60;99.90;;;;;;5054578;28;20170;-69
2022/09/29 03:16:28;;;;;;;9.63;3.55;;;6.40;99.90;;;;;;5055250;28;20052;-69
2022/09/29 03:18:55;;;;;;;3.50;2.67;;;6.40;99.90;;;;;;5055126;28;20039;-69
2022/09/29 03:21:21;;;;;;;3.95;2.95;;;6.40;99.90;;;;;;5055154;28;20045;-69
2022/09/29 03:23:47;;;;;;;6.78;2.80;;;6.40;99.90;;;;;;5072817;28;20082;-69
2022/09/29 03:26:13;;;;;;;5.60;3.28;;;6.40;99.90;;;;;;5054588;28;20045;-69
2022/09/29 03:28:39;;;;;;;7.65;3.25;;;6.70;99.90;;;;;;5072741;28;20489;-68
2022/09/29 03:31:06;;;;;;;5.75;3.75;;;6.30;99.90;;;;;;5054731;28;20052;-68
2022/09/29 03:33:32;;;;;;;5.32;3.63;;;6.50;99.90;;;;;;5072651;28;20065;-69
2022/09/29 03:35:58;;;;;;;5.95;3.65;;;6.20;99.90;;;;;;5054409;28;20051;-69
2022/09/29 03:38:23;;;;;;;5.22;3.35;;;6.20;99.90;;;;;;5037812;28;20045;-69
2022/09/29 03:40:49;;;;;;;5.07;3.78;;;6.40;99.90;;;;;;5072235;28;20071;-68
2022/09/29 03:43:15;;;;;;;6.25;3.80;;;6.10;99.90;;;;;;5072279;28;20123;-69
2022/09/29 03:45:48;;;;;;;6.70;3.65;;;6.20;99.90;;;;;;5072147;28;20047;-69
2022/09/29 03:48:14;;;;;;;6.70;2.83;;;6.10;99.90;;;;;;5054744;28;20048;-69
2022/09/29 03:50:39;;;;;;;5.40;3.20;;;6.10;99.90;;;;;;5072376;28;20037;-68
2022/09/29 03:53:05;;;;;;;9.40;4.10;;;6.00;99.90;;;;;;5072166;28;20036;-68
2022/09/29 03:55:31;;;;;;;6.07;3.78;;;6.10;99.90;;;;;;5054163;28;20043;-68
2022/09/29 03:57:57;;;;;;;5.20;3.20;;;6.10;99.90;;;;;;5072366;28;20111;-68
2022/09/29 04:00:22;;;;;;;5.25;3.08;;;6.10;99.90;;;;;;5054465;28;20047;-68
2022/09/29 04:02:48;;;;;;;7.93;4.40;;;6.20;99.90;;;;;;5072312;28;20502;-69
2022/09/29 04:05:14;;;;;;;5.28;3.92;;;6.10;99.90;;;;;;5072251;28;20040;-69
2022/09/29 04:07:40;;;;;;;8.32;4.80;;;6.20;99.90;;;;;;5054471;28;20050;-69
2022/09/29 04:10:06;;;;;;;5.35;3.45;;;6.20;99.90;;;;;;5054108;28;20044;-69
2022/09/29 04:12:32;;;;;;;6.78;3.92;;;4.40;99.90;;;;;;5037484;28;20131;-69
2022/09/29 04:14:57;;;;;;;6.75;4.00;;;6.40;99.90;;;;;;5071678;28;20048;-68
2022/09/29 04:17:23;;;;;;;7.32;3.92;;;7.20;99.90;;;;;;5072082;28;20044;-69
2022/09/29 04:19:49;;;;;;;5.63;3.58;;;6.30;99.90;;;;;;5071773;28;20083;-69
2022/09/29 04:22:18;;;;;;;5.50;3.65;;;6.30;99.90;;;;;;5054006;28;20097;-68
2022/09/29 04:24:46;;;;;;;5.72;4.15;;;6.20;99.90;;;;;;5071822;28;20047;-69
2022/09/29 04:27:11;;;;;;;5.88;4.05;;;6.20;99.90;;;;;;5071998;28;20110;-69
2022/09/29 04:29:37;;;;;;;4.18;2.97;;;6.20;99.90;;;;;;5054007;28;20408;-69
2022/09/29 04:32:04;;;;;;;4.43;3.50;;;7.10;99.90;;;;;;5071950;28;20051;-69
2022/09/29 04:34:30;;;;;;;10.70;4.00;;;6.30;99.90;;;;;;5071590;28;20076;-68
2022/09/29 04:36:56;;;;;;;7.05;3.70;;;6.70;99.90;;;;;;5071557;28;20076;-68
2022/09/29 04:39:21;;;;;;;4.65;3.30;;;6.10;99.90;;;;;;5071509;28;20033;-68
2022/09/29 04:41:47;;;;;;;9.07;4.13;;;6.50;99.90;;;;;;5071540;28;20036;-69
2022/09/29 04:44:13;;;;;;;4.55;3.60;;;6.10;99.90;;;;;;5071782;28;20170;-69
2022/09/29 04:46:39;;;;;;;5.88;4.10;;;6.40;99.90;;;;;;5071783;28;20040;-68
2022/09/29 04:49:04;;;;;;;6.38;4.18;;;6.00;99.90;;;;;;5071852;28;20066;-68
2022/09/29 04:51:30;;;;;;;5.70;3.80;;;6.00;99.90;;;;;;5053487;28;20129;-68
2022/09/29 04:53:57;;;;;;;5.47;3.63;;;6.00;99.90;;;;;;5071668;28;20040;-68
2022/09/29 04:56:23;;;;;;;6.07;4.05;;;5.90;99.90;;;;;;5053689;28;20041;-69
2022/09/29 04:58:49;;;;;;;4.97;3.78;;;5.90;99.90;;;;;;5053826;28;20072;-68
2022/09/29 05:01:15;;;;;;;6.05;3.83;;;5.80;99.90;;;;;;5071686;28;20577;-69
2022/09/29 05:03:41;;;;;;;6.38;4.10;;;5.90;99.90;;;;;;5071410;28;20094;-69
2022/09/29 05:06:08;;;;;;;7.78;3.45;;;5.80;99.90;;;;;;5071645;28;20170;-68
2022/09/29 05:08:35;;;;;;;5.40;3.70;;;5.80;99.90;;;;;;5053296;28;20047;-68
2022/09/29 05:11:06;;;;;;;5.07;3.35;;;5.80;99.90;;;;;;5071291;28;20033;-69
2022/09/29 05:13:32;;;;;;;6.15;4.43;;;5.80;99.90;;;;;;5053275;28;20124;-70
2022/09/29 05:15:58;;;;;;;8.15;4.32;;;5.80;99.90;;;;;;5070985;28;20135;-69
2022/09/29 05:18:24;;;;;;;5.85;4.18;;;5.80;99.90;;;;;;5071539;28;20436;-68
2022/09/29 05:20:50;;;;;;;8.25;4.43;;;5.80;99.90;;;;;;5071258;28;20399;-68
2022/09/29 05:23:15;;;;;;;6.35;4.35;;;6.00;99.90;;;;;;5071492;28;20032;-68
2022/09/29 05:25:42;;;;;;;7.63;5.25;;;6.70;99.90;;;;;;5053163;28;20052;-68
2022/09/29 05:28:09;;;;;;;9.05;4.97;;;6.60;99.90;;;;;;5053505;28;20130;-68
2022/09/29 05:30:36;;;;;;;7.85;4.65;;;5.80;99.90;;;;;;5075089;28;20044;-71
2022/09/29 05:33:02;;;;;;;6.82;4.78;;;5.90;99.90;;;;;;5074958;28;20476;-68
2022/09/29 05:35:27;;;;;;;6.05;4.75;;;5.80;99.90;;;;;;5074649;28;20074;-68
2022/09/29 05:37:53;;;;;;;8.73;4.80;;;6.40;99.90;;;;;;5074625;28;20063;-69
2022/09/29 05:40:22;;;;;;;9.80;4.53;;;5.80;99.90;;;;;;5039995;28;20117;-70
2022/09/29 05:42:49;;;;;;;6.22;4.30;;;5.80;99.90;;;;;;5074529;28;20116;-70
2022/09/29 05:45:14;;;;;;;7.70;4.60;;;5.80;99.90;;;;;;5074603;28;20147;-70
2022/09/29 05:47:42;;;;;;;7.47;4.28;;;5.80;99.90;;;;;;5074715;28;20123;-70
2022/09/29 05:50:10;;;;;;;8.45;4.88;;;5.80;99.90;;;;;;5056653;28;20048;-68
2022/09/29 05:52:36;;;;;;;7.90;4.25;;;5.80;99.90;;;;;;5074334;28;20140;-68
2022/09/29 05:55:01;;;;;;;7.07;4.20;;;5.80;99.90;;;;;;5056258;28;20127;-66
2022/09/29 05:57:27;;;;;;;7.13;4.53;;;5.80;99.90;;;;;;5074496;28;20531;-68
2022/09/29 05:59:53;;;;;;;7.13;4.57;;;5.80;99.90;;;;;;5074495;28;20044;-68
2022/09/29 06:02:18;;;;;;;6.28;4.40;;;5.80;99.90;;;;;;5056439;28;20040;-69
2022/09/29 06:04:44;;;;;;;7.85;4.35;;;6.20;99.90;;;;;;5074384;28;20045;-69
2022/09/29 06:07:10;;;;;;;6.38;4.68;;;5.80;99.90;;;;;;5074292;28;20128;-68
2022/09/29 06:09:35;;;;;;;5.60;4.07;;;5.90;99.90;;;;;;5074289;28;20032;-69
2022/09/29 06:12:02;;;;;;;7.65;5.22;;;6.00;99.90;;;;;;5056330;28;20049;-70
2022/09/29 06:14:28;;;;;;;7.60;5.00;;;6.00;99.90;;;;;;5073680;28;20064;-70
2022/09/29 06:16:54;;;;;;;8.75;5.18;;;6.00;99.90;;;;;;5055819;28;20070;-69
2022/09/29 06:19:20;;;;;;;9.05;5.10;;;6.10;99.90;;;;;;5056037;28;20056;-69
2022/09/29 06:21:46;;;;;;;9.07;5.47;;;7.10;99.90;;;;;;5055767;28;20408;-67
2022/09/29 06:24:11;;;;;;;7.47;5.32;;;6.20;99.90;;;;;;5055656;28;20479;-69
2022/09/29 06:26:37;;;;;;;7.55;5.10;;;6.30;99.90;;;;;;5055950;28;20063;-69
2022/09/29 06:29:03;;;;;;;9.35;5.20;;;6.30;99.90;;;;;;5055587;28;20036;-68
2022/09/29 06:31:30;;;;;;;8.43;5.93;;;6.40;99.90;;;;;;5055544;28;20161;-67
2022/09/29 06:33:58;;;;;;;10.65;6.22;;;7.20;99.90;;;;;;5055465;28;20049;-67
2022/09/29 06:39:22;;;;;;;11.48;7.35;;;6.60;99.90;;;;;;5073338;28;20109;-67
2022/09/29 06:41:52;;;;;;;11.80;6.75;;;6.70;99.90;;;;;;5073113;28;20066;-67
2022/09/29 06:44:19;;;;;;;9.25;6.63;;;7.40;99.90;;;;;;5055460;28;20197;-68
2022/09/29 06:46:45;;;;;;;10.93;6.65;;;6.80;99.90;;;;;;5073346;28;20064;-67
2022/09/29 06:49:12;;;;;;;7.28;4.97;;;7.00;99.90;;;;;;5073483;28;20475;-67
2022/09/29 06:51:38;;;;;;;11.55;6.13;;;7.00;99.90;;;;;;5073405;28;20047;-67
2022/09/29 06:54:03;;;;;;;8.40;5.20;;;7.00;99.90;;;;;;5073334;28;20456;-67
2022/09/29 06:56:29;;;;;;;9.60;5.07;;;7.10;99.90;;;;;;5073357;28;20119;-67
2022/09/29 06:58:55;;;;;;;10.18;6.05;;;7.20;99.90;;;;;;5055370;28;20083;-67
2022/09/29 07:01:21;;;;;;;10.15;6.30;;;7.40;99.90;;;;;;5073305;28;20032;-67
2022/09/29 07:03:47;;;;;;;9.43;6.28;;;7.30;99.90;;;;;;5073239;28;20101;-68
2022/09/29 07:06:13;;;;;;;7.93;5.45;;;7.30;99.90;;;;;;5055315;28;20033;-67
2022/09/29 07:08:39;;;;;;;9.25;5.80;;;7.50;99.90;;;;;;5054884;28;20398;-67
2022/09/29 07:11:06;;;;;;;9.77;6.28;;;8.10;99.90;;;;;;5072855;28;20090;-67
2022/09/29 07:13:32;;;;;;;9.13;5.45;;;7.60;99.90;;;;;;5054836;28;20136;-67
2022/09/29 07:16:06;;;;;;;8.52;5.63;;;7.60;99.90;;;;;;5072525;28;20131;-67
2022/09/29 07:18:34;;;;;;;14.15;5.43;;;7.70;99.90;;;;;;5072704;28;20048;-67
2022/09/29 07:21:00;;;;;;;8.63;5.68;;;7.80;99.90;;;;;;5072888;28;20049;-67
2022/09/29 07:23:26;;;;;;;10.40;6.63;;;7.80;99.90;;;;;;5072754;28;20484;-67
2022/09/29 07:25:52;;;;;;;8.75;5.75;;;7.90;99.90;;;;;;5072586;28;20052;-68
2022/09/29 07:28:18;;;;;;;8.15;5.65;;;8.60;99.90;;;;;;5072736;28;20052;-68
2022/09/29 07:30:43;;;;;;;11.38;5.35;;;8.10;99.90;;;;;;5054785;28;20044;-67
2022/09/29 07:33:09;;;;;;;9.50;6.03;;;8.10;99.90;;;;;;5054787;28;20051;-68
2022/09/29 07:35:35;;;;;;;8.23;6.20;;;8.10;99.90;;;;;;5072547;28;20067;-67
2022/09/29 07:38:00;;;;;;;8.60;6.03;;;8.20;99.90;;;;;;5054674;28;20075;-68
2022/09/29 07:40:27;;;;;;;9.57;6.43;;;8.40;99.90;;;;;;5072490;28;20029;-68
2022/09/29 07:42:53;;;;;;;11.98;6.55;;;8.40;99.90;;;;;;5054670;28;20048;-68
2022/09/29 07:45:19;;;;;;;10.57;6.30;;;8.50;99.90;;;;;;5054301;28;20041;-68
2022/09/29 07:47:45;;;;;;;8.73;5.15;;;8.50;99.90;;;;;;5072493;28;20047;-68
2022/09/29 07:50:11;;;;;;;9.52;5.70;;;8.50;99.90;;;;;;5072176;28;20041;-68
2022/09/29 07:52:37;;;;;;;7.72;4.93;;;8.50;99.90;;;;;;5072121;28;20478;-68
2022/09/29 07:55:04;;;;;;;11.30;5.88;;;8.60;99.90;;;;;;5072249;28;20052;-68
2022/09/29 07:57:30;;;;;;;8.10;5.60;;;8.70;99.90;;;;;;5054037;28;20048;-68
2022/09/29 07:59:57;;;;;;;7.00;4.88;;;8.80;99.90;;;;;;5072277;28;20490;-68
2022/09/29 08:02:24;;;;;;;12.52;6.68;;;8.90;99.90;;;;;;5071944;28;20055;-68
2022/09/29 08:04:49;;;;;;;9.20;5.60;;;9.00;99.90;;;;;;5071910;28;20048;-68
2022/09/29 08:07:15;;;;;;;8.88;5.53;;;9.10;99.90;;;;;;5072120;28;20089;-68
2022/09/29 08:09:41;;;;;;;11.27;5.35;;;9.40;99.90;;;;;;5071830;28;20547;-68
2022/09/29 08:12:08;;;;;;;5.93;4.18;;;9.30;99.90;;;;;;5072096;28;20051;-68
2022/09/29 08:14:34;;;;;;;7.20;4.55;;;9.40;99.90;;;;;;5053714;28;20061;-69
2022/09/29 08:16:59;;;;;;;7.03;4.63;;;9.40;99.90;;;;;;5072146;28;20055;-68
2022/09/29 08:19:27;;;;;;;7.22;4.55;;;9.50;99.90;;;;;;5037165;28;20673;-69
2022/09/29 08:21:52;;;;;;;7.65;4.70;;;9.50;99.90;;;;;;5071811;28;20044;-69
2022/09/29 08:24:18;;;;;;;7.65;4.90;;;9.60;99.90;;;;;;5071693;28;20047;-69
2022/09/29 08:26:44;;;;;;;8.75;5.03;;;9.70;99.90;;;;;;5053707;28;20040;-69
2022/09/29 08:29:13;;;;;;;8.10;4.43;;;9.80;99.90;;;;;;5053966;28;20094;-68
2022/09/29 08:31:39;;;;;;;6.90;3.95;;;9.80;99.90;;;;;;5071992;28;20044;-68
2022/09/29 08:34:05;;;;;;;7.63;4.18;;;9.90;99.90;;;;;;5071465;28;20063;-68
2022/09/29 08:36:31;;;;;;;7.97;4.40;;;9.90;99.90;;;;;;5053571;28;20109;-69
2022/09/29 08:38:57;;;;;;;5.50;4.13;;;10.00;99.90;;;;;;5071529;28;20044;-69
2022/09/29 08:41:38;;;;;;;6.05;3.33;;;10.00;99.90;;;;;;5053698;28;20131;-68
2022/09/29 08:44:27;;;;;;;7.60;3.88;;;10.00;99.90;;;;;;5036962;28;20101;-69
2022/09/29 08:46:59;;;;;;;12.00;4.28;;;10.10;99.90;;;;;;5071596;28;20129;-70
2022/09/29 08:49:28;;;;;;;6.68;3.92;;;10.20;99.90;;;;;;5053452;28;20047;-69
2022/09/29 08:52:01;;;;;;;9.57;3.97;;;10.20;99.90;;;;;;5071425;28;20115;-69
2022/09/29 08:54:32;;;;;;;10.30;3.42;;;10.50;99.90;;;;;;5053332;28;20051;-68
2022/09/29 08:56:59;;;;;;;7.85;3.88;;;10.40;99.90;;;;;;5071570;28;20048;-68
2022/09/29 08:59:27;;;;;;;6.38;3.47;;;10.60;99.90;;;;;;5071645;28;20119;-70
2022/09/29 09:02:02;;;;;;;5.72;3.13;;;10.50;99.90;;;;;;5071372;28;20040;-69
2022/09/29 09:04:37;;;;;;;6.75;3.47;;;10.50;99.90;;;;;;5074236;28;20376;-68
2022/09/29 09:07:13;;;;;;;4.88;3.08;;;10.60;99.90;;;;;;5057227;28;20060;-69
2022/09/29 09:09:42;;;;;;;5.78;3.08;;;10.60;99.90;;;;;;5057321;28;20059;-69
2022/09/29 09:12:38;;;;;;;6.03;3.70;;;10.70;99.90;;;;;;5057206;28;20075;-69
2022/09/29 09:15:25;;;;;;;9.38;3.67;;;10.80;99.90;;;;;;5075000;28;20056;-70
2022/09/29 09:18:09;;;;;;;4.45;2.53;;;10.80;99.90;;;;;;5074990;28;20080;-69
2022/09/29 09:20:52;;;;;;;4.88;3.00;;;10.90;99.90;;;;;;5075282;28;20438;-68
2022/09/29 09:23:45;;;;;;;5.45;2.78;;;11.00;99.90;;;;;;5057258;28;20115;-71
2022/09/29 09:26:12;;;;;;;5.80;2.78;;;11.00;99.90;;;;;;5075194;28;20531;-69
2022/09/29 09:28:51;;;;;;;5.53;3.30;;;11.10;99.90;;;;;;5057120;28;20088;-68
2022/09/29 09:31:29;;;;;;;6.32;3.08;;;11.10;99.90;;;;;;5074826;28;20040;-69
2022/09/29 09:34:09;;;;;;;4.93;3.03;;;11.20;99.90;;;;;;5056754;28;20044;-69
2022/09/29 09:36:46;;;;;;;4.82;3.30;;;11.30;99.90;;;;;;5075022;28;20105;-68
2022/09/29 09:39:14;;;;;;;5.75;2.25;;;11.30;99.90;;;;;;5074943;28;20463;-68
2022/09/29 09:41:44;;;;;;;5.03;2.47;;;11.40;99.90;;;;;;5057015;28;20106;-70
2022/09/29 09:44:16;;;;;;;3.07;2.03;;;11.50;99.90;;;;;;5074920;28;20068;-69
2022/09/29 09:46:50;;;;;;;12.35;2.25;;;11.60;99.90;;;;;;5056809;28;20661;-68
2022/09/29 09:49:30;;;;;;;5.63;2.95;;;11.60;99.90;;;;;;5056447;28;20048;-69
2022/09/29 09:52:03;;;;;;;4.97;2.70;;;11.70;99.90;;;;;;5074422;28;20079;-69
2022/09/29 09:54:35;;;;;;;3.55;2.20;;;11.80;99.90;;;;;;5056347;28;20125;-72
2022/09/29 09:57:25;;;;;;;3.92;2.55;;;11.90;99.90;;;;;;5074398;28;20032;-70
2022/09/29 10:00:00;;;;;;;2.90;2.03;;;12.00;99.90;;;;;;5074330;28;20487;-70
2022/09/29 10:02:28;;;;;;;5.68;1.70;;;12.10;99.90;;;;;;5074428;28;20043;-71
2022/09/29 10:04:55;;;;;;;2.78;1.73;;;12.20;99.90;;;;;;5056463;28;20052;-69
2022/09/29 10:07:26;;;;;;;4.18;1.90;;;12.30;99.90;;;;;;5074068;28;20123;-68
2022/09/29 10:09:52;;;;;;;3.17;1.73;;;12.50;99.90;;;;;;5074385;28;20046;-69
2022/09/29 10:12:21;;;;;;;2.08;1.55;;;12.60;99.90;;;;;;5074337;28;20375;-68
2022/09/29 10:14:56;;;;;;;3.33;1.45;;;12.70;99.90;;;;;;5055503;28;20060;-68
2022/09/29 10:17:26;;;;;;;1.67;1.17;;;12.70;99.90;;;;;;5056001;28;20074;-69
2022/09/29 10:20:00;;;;;;;2.10;1.30;;;12.80;99.90;;;;;;5074215;28;20547;-68
2022/09/29 10:22:28;;;;;;;2.15;1.08;;;12.90;99.90;;;;;;5073714;28;20043;-68
2022/09/29 10:25:10;;;;;;;3.95;1.50;;;13.00;99.90;;;;;;5073904;28;20048;-74
2022/09/29 10:27:41;;;;;;;2.33;1.30;;;13.00;99.90;;;;;;5074081;28;20095;-70
2022/09/29 10:30:21;;;;;;;3.17;1.50;;;13.20;99.90;;;;;;5073960;28;20123;-69
2022/09/29 10:32:47;;;;;;;2.00;1.17;;;13.20;99.90;;;;;;5074039;28;20278;-70
2022/09/29 10:35:27;;;;;;;2.40;1.17;;;13.20;99.90;;;;;;5055758;28;20084;-70
2022/09/29 10:38:08;;;;;;;2.25;1.50;;;13.30;99.90;;;;;;5073855;28;20087;-70
2022/09/29 10:40:35;;;;;;;3.60;1.45;;;13.30;99.90;;;;;;5073446;28;20119;-70
2022/09/29 10:43:23;;;;;;;2.65;1.50;;;13.30;99.90;;;;;;5055638;28;20094;-70
2022/09/29 10:45:49;;;;;;;1.83;1.30;;;13.40;99.90;;;;;;5073742;28;20094;-70
2022/09/29 10:48:17;;;;;;;5.38;1.40;;;13.40;99.90;;;;;;5073315;28;20430;-70
2022/09/29 10:50:56;;;;;;;1.65;1.20;;;13.50;99.90;;;;;;5055629;28;20052;-70
2022/09/29 10:53:40;;;;;;;2.78;1.10;;;13.50;99.90;;;;;;5073547;28;20040;-70
2022/09/29 10:56:17;;;;;;;2.10;1.40;;;13.50;99.90;;;;;;5073407;28;20039;-70
2022/09/29 10:58:57;;;;;;;2.03;1.17;;;13.50;99.90;;;;;;5073424;28;20085;-70
2022/09/29 11:01:25;;;;;;;2.50;1.65;;;13.60;99.90;;;;;;5073436;28;20043;-70
2022/09/29 11:04:05;;;;;;;1.55;1.10;;;13.70;99.90;;;;;;5073009;28;20043;-70
2022/09/29 11:06:35;;;;;;;2.60;1.35;;;13.70;99.90;;;;;;5073010;28;20115;-70
2022/09/29 11:09:03;;;;;;;2.25;1.00;;;13.80;99.90;;;;;;5054976;28;20047;-70
2022/09/29 11:11:53;;;;;;;2.08;1.50;;;13.80;99.90;;;;;;5054948;28;20055;-70
2022/09/29 11:14:26;;;;;;;2.38;1.30;;;13.80;99.90;;;;;;5060428;28;20048;-70
2022/09/29 11:16:57;;;;;;;1.30;0.85;;;13.90;99.90;;;;;;5073292;28;20041;-71
2022/09/29 11:19:23;;;;;;;1.08;0.65;;;13.80;99.90;;;;;;5055010;28;20036;-70
2022/09/29 11:22:26;;;;;;;2.00;0.90;;;13.80;99.90;;;;;;5072750;28;20093;-70
2022/09/29 11:25:19;;;;;;;1.33;1.00;;;13.80;99.90;;;;;;5072825;28;20047;-70
2022/09/29 11:27:51;;;;;;;1.83;0.95;;;14.00;99.90;;;;;;5054476;28;20084;-70
2022/09/29 11:30:21;;;;;;;3.17;1.38;;;14.10;99.90;;;;;;5054654;28;20047;-70
2022/09/29 11:33:03;;;;;;;3.75;1.52;;;14.20;99.90;;;;;;5072863;28;20104;-70
2022/09/29 11:36:00;;;;;;;1.75;0.90;;;14.20;97.80;;;;;;5072304;28;20131;-70
2022/09/29 11:38:28;;;;;;;1.27;0.75;;;14.20;97.80;;;;;;5072377;28;20357;-70
2022/09/29 11:41:15;;;;;;;1.73;1.23;;;14.10;98.50;;;;;;5072695;28;20032;-70
2022/09/29 11:43:57;;;;;;;1.58;0.90;;;14.10;97.10;;;;;;5072452;28;20037;-71
2022/09/29 11:46:44;;;;;;;3.45;0.85;;;14.20;97.00;;;;;;5072570;28;20434;-70
2022/09/29 11:49:35;;;;;;;1.05;0.80;;;14.30;98.50;;;;;;5072224;28;20373;-70
2022/09/29 11:52:01;;;;;;;;;;;14.40;96.80;;;;;;5072938;28;20119;-70
2022/09/29 11:54:39;;;;;;;0.68;0.60;;;14.40;97.60;;;;;;5072419;28;19928;-72
2022/09/29 11:57:31;;;;;;;0.63;0.50;;;14.50;98.30;;;;;;5054236;28;20041;-70
2022/09/29 12:00:15;;;;;;;0.68;0.50;;;14.60;97.10;;;;;;5053902;28;20127;-70
2022/09/29 12:03:03;;;;;;;1.88;0.90;;;14.60;97.10;;;;;;5072087;28;20090;-70
2022/09/29 12:06:00;;;;;;;1.13;0.75;;;14.70;95.40;;;;;;5054331;28;20052;-70
2022/09/29 12:08:41;;;;;;;0.88;0.70;;;14.70;95.40;;;;;;5071986;28;20080;-70
2022/09/29 12:11:15;;;;;;;1.48;0.30;;;14.90;97.20;;;;;;5072284;28;20506;-70
2022/09/29 12:14:16;;;;;;;0.75;0.40;;;15.10;96.30;;;;;;5072261;28;20041;-70
2022/09/29 12:16:56;;;;;;;0.28;0.28;;;15.20;93.80;;;;;;5021068;28;20056;-70
2022/09/29 12:19:27;;;;;;;0.47;0.35;;;15.40;90.10;;;;;;5052159;28;20041;-70
2022/09/29 12:21:56;;;;;;;0.38;0.35;;;15.50;93.40;;;;;;5051814;28;20041;-70
2022/09/29 12:24:36;;;;;;;0.50;0.35;;;15.60;87.80;;;;;;5051876;28;20048;-70
2022/09/29 12:27:06;;;;;;;0.85;0.20;;;15.50;90.10;;;;;;5034146;28;20043;-70
2022/09/29 12:30:04;;;;;;;0.40;0.30;;;15.60;92.30;;;;;;5052012;28;20043;-70
2022/09/29 12:33:02;;;;;;;0.47;0.40;;;15.40;81.60;;;;;;5050776;28;20049;-70
2022/09/29 12:35:42;;;;;;;0.30;0.30;;;15.30;92.40;;;;;;5050877;28;20055;-70
2022/09/29 12:38:30;;;;;;;0.20;0.20;;;15.10;92.10;;;;;;5034242;28;20045;-70
2022/09/29 12:40:56;;;;;;;0.55;0.40;;;15.00;93.70;;;;;;5037959;28;20041;-70
2022/09/29 12:43:30;;;;;;;0.95;0.50;;;15.00;87.90;;;;;;5037851;28;20045;-70
2022/09/29 12:45:59;;;;;;;0.45;0.25;;;14.90;91.20;;;;;;5038104;28;20056;-70
2022/09/29 12:48:44;;;;;;;0.55;0.45;;;14.90;90.20;;;;;;5055628;28;20056;-70
2022/09/29 12:51:29;;;;;;;0.28;0.17;;;14.80;81.30;;;;;;5055934;28;20040;-70
2022/09/29 12:53:58;;;;;;;0.43;0.35;;;14.70;90.10;;;;;;5039842;28;20111;-70
2022/09/29 12:56:31;;;;;;;0.93;0.40;;;14.70;92.50;;;;;;5055746;28;20041;-70
2022/09/29 12:59:08;;;;;;;0.40;0.30;;;14.70;87.70;;;;;;5037679;28;20486;-69
2022/09/29 13:01:36;;;;;;;0.25;0.25;;;14.60;88.00;;;;;;5055519;28;20037;-70
2022/09/29 13:04:19;;;;;;;0.10;0.10;;;14.60;90.70;;;;;;5055497;28;20045;-70
2022/09/29 13:07:09;;;;;;;0.38;0.25;;;14.60;90.40;;;;;;5037449;28;20124;-70
2022/09/29 13:10:02;;;;;;;0.20;0.20;;;14.60;89.30;;;;;;5055658;28;20033;-70
2022/09/29 13:12:37;;;;;;;0.45;0.20;;;14.70;89.70;;;;;;5037274;28;20049;-69
2022/09/29 13:15:19;;;;;;;0.60;0.20;;;14.80;88.70;;;;;;5065083;28;20095;-70
2022/09/29 13:18:09;;;;;;;0.32;0.28;;;14.80;88.30;;;;;;5057174;28;20036;-70
2022/09/29 13:20:56;;;;;;;0.57;0.40;;;14.90;86.20;;;;;;5075119;28;20043;-70